createdAt,value
2019-04-03T00:01:10.123Z,17.20
2019-04-03T00:03:38.686Z,17.20
2019-04-03T00:06:07.202Z,17.20
2019-04-03T00:08:36.620Z,17.20
2019-04-03T00:11:08.549Z,17.10
2019-04-03T00:13:35.892Z,17.10
2019-04-03T00:16:04.462Z,17.00
2019-04-03T00:18:33.020Z,16.90
2019-04-03T00:21:01.517Z,16.70
2019-04-03T00:23:30.150Z,16.60
2019-04-03T00:25:58.705Z,16.40
2019-04-03T00:28:27.318Z,16.20
2019-04-03T00:30:55.742Z,16.00
2019-04-03T00:33:24.241Z,15.90
2019-04-03T00:35:53.647Z,15.80
2019-04-03T00:38:23.882Z,15.70
2019-04-03T00:40:54.305Z,15.60
2019-04-03T00:43:24.291Z,15.50
2019-04-03T00:45:54.557Z,15.30
2019-04-03T00:48:25.070Z,15.10
2019-04-03T00:50:56.190Z,15.10
2019-04-03T00:53:24.311Z,15.10
2019-04-03T00:55:52.841Z,15.10
2019-04-03T00:58:36.143Z,15.10
2019-04-03T01:01:06.424Z,15.10
2019-04-03T01:03:34.947Z,15.00
2019-04-03T01:06:03.725Z,15.00
2019-04-03T01:08:32.422Z,14.90
2019-04-03T01:11:01.024Z,15.00
2019-04-03T01:13:31.012Z,15.10
2019-04-03T01:16:02.067Z,15.10
2019-04-03T01:18:30.138Z,15.20
2019-04-03T01:20:58.716Z,15.20
2019-04-03T01:23:27.270Z,15.30
2019-04-03T01:25:55.769Z,15.30
2019-04-03T01:28:24.347Z,15.40
2019-04-03T01:30:52.858Z,15.50
2019-04-03T01:33:21.397Z,15.60
2019-04-03T01:35:49.894Z,15.60
2019-04-03T01:38:19.929Z,15.60
2019-04-03T01:40:48.902Z,15.70
2019-04-03T01:43:18.640Z,15.70
2019-04-03T01:45:47.450Z,15.80
2019-04-03T01:48:15.919Z,15.90
2019-04-03T01:50:44.450Z,16.00
2019-04-03T01:53:12.958Z,16.00
2019-04-03T01:55:41.415Z,16.10
2019-04-03T01:58:09.850Z,16.20
2019-04-03T02:00:38.312Z,16.20
2019-04-03T02:03:08.263Z,16.20
2019-04-03T02:05:37.000Z,16.20
2019-04-03T02:08:05.428Z,16.30
2019-04-03T02:10:33.895Z,16.20
2019-04-03T02:13:02.575Z,16.20
2019-04-03T02:15:31.185Z,16.20
2019-04-03T02:17:59.701Z,16.20
2019-04-03T02:20:28.176Z,16.20
2019-04-03T02:22:59.643Z,16.20
2019-04-03T02:25:26.849Z,16.20
2019-04-03T02:27:55.284Z,16.10
2019-04-03T02:30:23.768Z,16.00
2019-04-03T02:32:55.185Z,16.00
2019-04-03T02:35:22.442Z,16.00
2019-04-03T02:37:50.969Z,16.00
2019-04-03T02:40:19.519Z,15.90
2019-04-03T02:42:48.437Z,15.80
2019-04-03T02:45:17.125Z,15.70
2019-04-03T02:47:45.583Z,15.70
2019-04-03T02:50:17.176Z,15.70
2019-04-03T02:52:45.607Z,15.70
2019-04-03T02:55:14.058Z,15.60
2019-04-03T02:57:42.499Z,15.60
2019-04-03T03:00:11.467Z,15.60
2019-04-03T03:02:39.912Z,15.50
2019-04-03T03:05:08.543Z,15.50
2019-04-03T03:07:37.435Z,15.50
2019-04-03T03:10:07.473Z,15.60
2019-04-03T03:12:38.060Z,15.60
2019-04-03T03:15:12.160Z,15.70
2019-04-03T03:17:40.330Z,15.60
2019-04-03T03:20:09.453Z,15.60
2019-04-03T03:22:39.184Z,15.50
2019-04-03T03:25:08.249Z,15.50
2019-04-03T03:27:40.204Z,15.50
2019-04-03T03:30:30.366Z,15.40
2019-04-03T03:32:38.740Z,15.40
2019-04-03T03:35:14.278Z,15.40
2019-04-03T03:37:38.650Z,15.40
2019-04-03T03:40:08.174Z,15.40
2019-04-03T03:42:37.015Z,15.50
2019-04-03T03:45:06.388Z,15.50
2019-04-03T03:47:37.062Z,15.50
2019-04-03T03:50:07.415Z,15.50
2019-04-03T03:52:38.169Z,15.50
2019-04-03T03:55:08.386Z,15.30
2019-04-03T03:57:40.498Z,15.20
2019-04-03T04:00:10.220Z,15.00
2019-04-03T04:02:43.129Z,15.00
2019-04-03T04:05:11.604Z,15.00
2019-04-03T04:07:39.901Z,14.90
2019-04-03T04:10:08.759Z,14.80
2019-04-03T04:12:41.295Z,14.80
2019-04-03T04:15:08.057Z,14.70
2019-04-03T04:17:36.897Z,14.60
2019-04-03T04:20:07.353Z,14.60
2019-04-03T04:22:37.368Z,14.60
2019-04-03T04:25:07.004Z,14.60
2019-04-03T04:27:37.833Z,14.60
2019-04-03T04:30:06.619Z,14.60
2019-04-03T04:32:35.139Z,14.40
2019-04-03T04:35:04.823Z,14.30
2019-04-03T04:37:33.284Z,14.20
2019-04-03T04:40:01.712Z,14.20
2019-04-03T04:42:30.223Z,14.20
2019-04-03T04:44:58.749Z,14.20
2019-04-03T04:47:27.909Z,14.10
2019-04-03T04:49:56.559Z,14.10
2019-04-03T04:52:25.769Z,14.00
2019-04-03T04:54:55.235Z,13.80
2019-04-03T04:57:23.665Z,13.70
2019-04-03T04:59:52.122Z,13.60
2019-04-03T05:02:20.728Z,13.60
2019-04-03T05:04:52.375Z,13.50
2019-04-03T05:07:20.911Z,13.50
2019-04-03T05:09:49.343Z,13.40
2019-04-03T05:12:17.805Z,13.30
2019-04-03T05:14:46.887Z,13.10
2019-04-03T05:17:16.427Z,13.10
2019-04-03T05:19:45.012Z,13.00
2019-04-03T05:22:13.728Z,13.00
2019-04-03T05:24:42.364Z,13.00
2019-04-03T05:27:10.843Z,13.00
2019-04-03T05:29:39.450Z,13.00
2019-04-03T05:32:09.916Z,12.90
2019-04-03T05:34:38.095Z,12.80
2019-04-03T05:37:06.696Z,12.70
2019-04-03T05:39:36.945Z,12.70
2019-04-03T05:42:05.764Z,12.60
2019-04-03T05:44:34.489Z,12.50
2019-04-03T05:47:02.948Z,12.50
2019-04-03T05:49:31.394Z,12.50
2019-04-03T05:51:59.861Z,12.60
2019-04-03T05:54:28.552Z,12.60
2019-04-03T05:56:56.995Z,12.60
2019-04-03T05:59:25.443Z,12.60
2019-04-03T06:01:53.986Z,12.50
2019-04-03T06:04:22.497Z,12.50
2019-04-03T06:06:51.331Z,12.40
2019-04-03T06:09:21.758Z,12.40
2019-04-03T06:11:51.903Z,12.40
2019-04-03T06:14:23.177Z,12.50
2019-04-03T06:16:50.847Z,12.50
2019-04-03T06:19:19.386Z,12.50
2019-04-03T06:21:48.046Z,12.50
2019-04-03T06:24:17.983Z,12.50
2019-04-03T06:26:47.543Z,12.50
2019-04-03T06:29:16.930Z,12.60
2019-04-03T06:31:46.154Z,12.70
2019-04-03T06:34:14.625Z,12.70
2019-04-03T06:36:43.067Z,12.90
2019-04-03T06:39:11.520Z,13.00
2019-04-03T06:41:41.521Z,13.20
2019-04-03T06:44:10.134Z,13.40
2019-04-03T06:46:38.573Z,13.50
2019-04-03T06:49:08.518Z,13.60
2019-04-03T06:51:37.189Z,13.70
2019-04-03T06:54:07.596Z,13.70
2019-04-03T06:56:36.431Z,13.70
2019-04-03T06:59:05.396Z,13.80
2019-04-03T07:01:33.939Z,13.70
2019-04-03T07:04:02.562Z,13.60
2019-04-03T07:06:31.071Z,13.50
2019-04-03T07:08:59.531Z,13.50
2019-04-03T07:11:27.961Z,13.40
2019-04-03T07:13:56.425Z,13.30
2019-04-03T07:16:25.111Z,13.20
2019-04-03T07:18:53.930Z,13.10
2019-04-03T07:21:23.162Z,13.10
2019-04-03T07:23:53.033Z,13.10
2019-04-03T07:26:21.802Z,13.20
2019-04-03T07:28:50.647Z,13.20
2019-04-03T07:31:19.204Z,13.10
2019-04-03T07:33:47.662Z,13.10
2019-04-03T07:36:16.234Z,13.10
2019-04-03T07:38:44.691Z,13.10
2019-04-03T07:41:13.135Z,13.10
2019-04-03T07:43:41.881Z,13.20
2019-04-03T07:46:10.346Z,13.30
2019-04-03T07:48:38.861Z,13.30
2019-04-03T07:51:07.352Z,13.40
2019-04-03T07:53:36.046Z,13.60
2019-04-03T07:56:05.194Z,13.60
2019-04-03T07:58:34.096Z,13.70
2019-04-03T08:01:02.694Z,13.60
2019-04-03T08:03:31.556Z,13.70
2019-04-03T08:06:01.021Z,13.70
2019-04-03T08:08:30.493Z,13.80
2019-04-03T08:11:01.479Z,13.80
2019-04-03T08:13:29.231Z,13.90
2019-04-03T08:15:57.671Z,14.00
2019-04-03T08:18:26.392Z,13.90
2019-04-03T08:20:56.787Z,13.90
2019-04-03T08:23:25.228Z,13.90
2019-04-03T08:25:54.709Z,13.90
2019-04-03T08:28:26.003Z,13.70
2019-04-03T08:30:53.839Z,13.70
2019-04-03T08:33:26.075Z,13.70
2019-04-03T08:35:52.571Z,13.80
2019-04-03T08:38:21.096Z,13.80
2019-04-03T08:40:51.379Z,13.90
2019-04-03T08:43:19.956Z,14.00
2019-04-03T08:45:48.521Z,14.10
2019-04-03T08:48:18.111Z,14.10
2019-04-03T08:50:46.888Z,14.00
2019-04-03T08:53:15.627Z,13.90
2019-04-03T08:55:46.410Z,13.90
2019-04-03T08:58:14.302Z,13.80
2019-04-03T09:00:43.075Z,13.80
2019-04-03T09:03:13.950Z,13.70
2019-04-03T09:05:41.994Z,13.60
2019-04-03T09:08:10.594Z,13.60
2019-04-03T09:10:39.122Z,13.70
2019-04-03T09:13:16.846Z,13.80
2019-04-03T09:15:37.804Z,14.00
2019-04-03T09:18:06.927Z,14.10
2019-04-03T09:20:36.141Z,14.30
2019-04-03T09:23:04.670Z,14.40
2019-04-03T09:25:33.115Z,14.40
2019-04-03T09:28:01.841Z,14.20
2019-04-03T09:30:30.418Z,14.20
2019-04-03T09:32:59.924Z,14.10
2019-04-03T09:35:28.884Z,14.00
2019-04-03T09:37:57.315Z,13.90
2019-04-03T09:40:25.809Z,13.90
2019-04-03T09:42:54.266Z,13.80
2019-04-03T09:45:22.794Z,13.60
2019-04-03T09:47:51.295Z,13.50
2019-04-03T09:50:22.019Z,13.40
2019-04-03T09:52:50.799Z,13.30
2019-04-03T09:55:19.346Z,13.20
2019-04-03T09:57:47.796Z,13.00
2019-04-03T10:00:16.571Z,12.80
2019-04-03T10:02:45.354Z,12.70
2019-04-03T10:05:15.530Z,12.70
2019-04-03T10:07:43.983Z,12.70
2019-04-03T10:10:14.083Z,12.70
2019-04-03T10:12:47.605Z,12.50
2019-04-03T10:15:13.962Z,12.50
2019-04-03T10:17:42.396Z,12.50
2019-04-03T10:20:11.119Z,12.50
2019-04-03T10:22:39.602Z,12.40
2019-04-03T10:25:08.466Z,12.40
2019-04-03T10:27:37.003Z,12.30
2019-04-03T10:30:11.058Z,12.30
2019-04-03T10:32:39.587Z,12.20
2019-04-03T10:35:09.117Z,12.20
2019-04-03T10:37:37.987Z,12.20
2019-04-03T10:40:08.171Z,12.30
2019-04-03T10:42:36.902Z,12.30
2019-04-03T10:45:08.150Z,12.20
2019-04-03T10:47:42.012Z,12.20
2019-04-03T10:50:08.213Z,12.20
2019-04-03T10:52:36.830Z,12.30
2019-04-03T10:55:09.499Z,12.50
2019-04-03T10:57:39.283Z,12.70
2019-04-03T11:00:12.586Z,12.90
2019-04-03T11:02:41.100Z,13.00
2019-04-03T11:05:10.425Z,13.10
2019-04-03T11:07:39.266Z,13.30
2019-04-03T11:10:09.923Z,13.50
2019-04-03T11:12:38.606Z,13.70
2019-04-03T11:15:10.826Z,13.80
2019-04-03T11:17:38.410Z,13.90
2019-04-03T11:20:09.748Z,13.90
2019-04-03T11:22:41.603Z,14.00
2019-04-03T11:25:13.880Z,13.90
2019-04-03T11:27:43.015Z,14.00
2019-04-03T11:30:16.950Z,14.00
2019-04-03T11:32:43.092Z,14.00
2019-04-03T11:35:11.855Z,14.00
2019-04-03T11:37:40.529Z,14.10
2019-04-03T11:40:10.051Z,14.30
2019-04-03T11:42:38.953Z,14.50
2019-04-03T11:45:08.520Z,14.70
2019-04-03T11:47:37.105Z,15.00
2019-04-03T11:50:08.470Z,15.30
2019-04-03T11:52:36.972Z,15.70
2019-04-03T11:55:10.000Z,16.10
2019-04-03T11:57:37.478Z,16.40
2019-04-03T12:00:12.256Z,16.50
2019-04-03T12:02:43.717Z,16.60
2019-04-03T12:05:11.215Z,16.60
2019-04-03T12:07:39.634Z,16.60
2019-04-03T12:10:08.832Z,16.70
2019-04-03T12:12:37.268Z,16.60
2019-04-03T12:15:07.458Z,16.50
2019-04-03T12:17:35.893Z,16.40
2019-04-03T12:20:08.796Z,16.40
2019-04-03T12:22:36.539Z,16.30
2019-04-03T12:25:06.334Z,16.30
2019-04-03T12:27:36.047Z,16.30
2019-04-03T12:30:08.422Z,16.20
2019-04-03T12:32:42.602Z,16.00
2019-04-03T12:35:09.862Z,15.90
2019-04-03T12:37:38.126Z,15.80
2019-04-03T12:40:08.381Z,15.60
2019-04-03T12:42:36.912Z,15.50
2019-04-03T12:45:07.479Z,15.50
2019-04-03T12:47:36.223Z,15.40
2019-04-03T12:50:06.818Z,15.30
2019-04-03T12:52:35.385Z,15.30
2019-04-03T12:55:07.346Z,15.30
2019-04-03T12:57:38.942Z,15.30
2019-04-03T13:00:10.570Z,15.20
2019-04-03T13:02:39.059Z,15.20
2019-04-03T13:05:08.920Z,15.20
2019-04-03T13:07:37.583Z,15.20
2019-04-03T13:10:08.564Z,15.20
2019-04-03T13:12:37.296Z,15.20
2019-04-03T13:15:08.756Z,15.20
2019-04-03T13:17:37.550Z,15.20
2019-04-03T13:20:09.709Z,15.30
2019-04-03T13:22:38.171Z,15.30
2019-04-03T13:25:07.982Z,15.40
2019-04-03T13:27:36.471Z,15.50
2019-04-03T13:30:11.444Z,15.70
2019-04-03T13:32:39.682Z,15.70
2019-04-03T13:35:08.434Z,15.70
2019-04-03T13:37:37.289Z,15.70
2019-04-03T13:40:10.667Z,15.90
2019-04-03T13:42:39.092Z,16.10
2019-04-03T13:45:09.361Z,16.50
2019-04-03T13:47:41.046Z,16.70
2019-04-03T13:50:09.593Z,16.80
2019-04-03T13:52:42.546Z,16.80
2019-04-03T13:55:08.768Z,16.80
2019-04-03T13:57:37.324Z,16.70
2019-04-03T14:00:18.204Z,16.70
2019-04-03T14:02:40.137Z,16.60
2019-04-03T14:05:09.769Z,16.50
2019-04-03T14:07:41.561Z,16.30
2019-04-03T14:10:10.213Z,16.20
2019-04-03T14:12:43.222Z,16.00
2019-04-03T14:15:09.979Z,15.70
2019-04-03T14:17:38.747Z,15.40
2019-04-03T14:20:08.905Z,15.20
2019-04-03T14:22:37.538Z,15.00
2019-04-03T14:25:18.502Z,14.90
2019-04-03T14:27:37.703Z,14.80
2019-04-03T14:30:11.044Z,14.80
2019-04-03T14:32:38.331Z,14.90
2019-04-03T14:35:38.506Z,15.10
2019-04-03T14:37:38.691Z,15.30
2019-04-03T14:40:11.140Z,15.40
2019-04-03T14:42:38.606Z,15.50
2019-04-03T14:45:08.047Z,15.50
2019-04-03T14:47:36.969Z,15.60
2019-04-03T14:50:07.348Z,15.50
2019-04-03T14:52:36.336Z,15.40
2019-04-03T14:55:16.470Z,15.30
2019-04-03T14:57:37.236Z,15.10
2019-04-03T15:00:23.362Z,14.90
2019-04-03T15:02:40.266Z,14.70
2019-04-03T15:05:09.593Z,14.60
2019-04-03T15:07:38.037Z,14.50
2019-04-03T15:10:07.415Z,14.30
2019-04-03T15:12:38.639Z,14.20
2019-04-03T15:15:08.021Z,14.10
2019-04-03T15:17:37.816Z,13.90
2019-04-03T15:20:10.417Z,13.80
2019-04-03T15:22:39.448Z,13.80
2019-04-03T15:25:08.763Z,13.70
2019-04-03T15:27:37.482Z,13.60
2019-04-03T15:30:10.424Z,13.40
2019-04-03T15:32:39.056Z,13.30
2019-04-03T15:35:08.055Z,13.20
2019-04-03T15:37:39.909Z,13.10
2019-04-03T15:40:08.017Z,13.00
2019-04-03T15:42:39.806Z,12.80
2019-04-03T15:45:08.911Z,12.80
2019-04-03T15:47:41.803Z,12.80
2019-04-03T15:50:08.814Z,12.70
2019-04-03T15:52:37.490Z,12.60
2019-04-03T15:55:07.848Z,12.50
2019-04-03T15:57:39.122Z,12.30
2019-04-03T16:00:11.474Z,12.20
2019-04-03T16:02:40.416Z,12.20
2019-04-03T16:05:09.731Z,12.10
2019-04-03T16:07:41.621Z,12.10
2019-04-03T16:10:08.552Z,11.90
2019-04-03T16:12:41.602Z,11.80
2019-04-03T16:15:09.239Z,11.70
2019-04-03T16:17:39.249Z,11.70
2019-04-03T16:20:08.475Z,11.60
2019-04-03T16:22:36.980Z,11.50
2019-04-03T16:25:07.071Z,11.40
2019-04-03T16:27:35.574Z,11.40
2019-04-03T16:30:07.446Z,11.30
2019-04-03T16:32:36.534Z,11.30
2019-04-03T16:35:08.918Z,11.40
2019-04-03T16:37:37.622Z,11.40
2019-04-03T16:40:08.011Z,11.40
2019-04-03T16:42:37.031Z,11.50
2019-04-03T16:45:09.433Z,11.50
2019-04-03T16:47:38.362Z,11.50
2019-04-03T16:50:09.831Z,11.50
2019-04-03T16:52:38.775Z,11.50
2019-04-03T16:55:09.049Z,11.50
2019-04-03T16:57:37.578Z,11.50
2019-04-03T17:00:08.467Z,11.50
2019-04-03T17:02:37.372Z,11.50
2019-04-03T17:05:10.328Z,11.50
2019-04-03T17:07:38.378Z,11.60
2019-04-03T17:10:09.457Z,11.60
2019-04-03T17:12:37.879Z,11.60
2019-04-03T17:15:08.558Z,11.40
2019-04-03T17:17:37.051Z,11.40
2019-04-03T17:20:07.966Z,11.40
2019-04-03T17:22:38.899Z,11.40
2019-04-03T17:25:09.043Z,11.40
2019-04-03T17:27:37.811Z,11.30
2019-04-03T17:30:09.225Z,11.30
2019-04-03T17:32:38.695Z,11.20
2019-04-03T17:35:07.825Z,11.10
2019-04-03T17:37:36.847Z,11.10
2019-04-03T17:40:10.498Z,11.10
2019-04-03T17:42:39.964Z,11.10
2019-04-03T17:45:09.008Z,11.10
2019-04-03T17:47:37.443Z,11.10
2019-04-03T17:50:08.676Z,11.10
2019-04-03T17:52:37.206Z,11.10
2019-04-03T17:55:10.121Z,11.10
2019-04-03T17:57:39.252Z,11.10
2019-04-03T18:00:10.809Z,11.10
2019-04-03T18:02:39.252Z,11.10
2019-04-03T18:05:08.538Z,11.00
2019-04-03T18:07:37.266Z,10.80
2019-04-03T18:10:12.214Z,10.70
2019-04-03T18:12:38.371Z,10.70
2019-04-03T18:15:08.761Z,10.60
2019-04-03T18:17:38.070Z,10.50
2019-04-03T18:20:12.579Z,10.40
2019-04-03T18:22:39.871Z,10.20
2019-04-03T18:25:08.898Z,10.30
2019-04-03T18:27:37.458Z,10.20
2019-04-03T18:30:11.084Z,10.30
2019-04-03T18:32:38.988Z,10.20
2019-04-03T18:35:08.264Z,10.30
2019-04-03T18:37:36.699Z,10.30
2019-04-03T18:40:07.102Z,10.30
2019-04-03T18:42:35.619Z,10.30
2019-04-03T18:45:05.714Z,10.40
2019-04-03T18:47:41.013Z,10.40
2019-04-03T18:50:05.932Z,10.50
2019-04-03T18:52:34.447Z,10.70
2019-04-03T18:55:03.040Z,10.60
2019-04-03T18:57:31.558Z,10.60
2019-04-03T19:00:00.721Z,10.60
2019-04-03T19:02:29.354Z,10.60
2019-04-03T19:05:02.230Z,10.70
2019-04-03T19:07:27.995Z,10.80
2019-04-03T19:10:06.517Z,10.80
2019-04-03T19:12:35.398Z,10.80
2019-04-03T19:14:56.856Z,10.80
2019-04-03T19:17:25.715Z,10.80
2019-04-03T19:20:03.982Z,10.80
2019-04-03T19:22:25.802Z,10.80
2019-04-03T19:24:54.746Z,10.90
2019-04-03T19:27:23.215Z,10.90
2019-04-03T19:29:51.687Z,11.00
2019-04-03T19:32:20.215Z,10.90
2019-04-03T19:34:51.902Z,10.90
2019-04-03T19:37:19.028Z,10.90
2019-04-03T19:39:47.506Z,10.90
2019-04-03T19:42:15.935Z,10.90
2019-04-03T19:44:44.375Z,10.80
2019-04-03T19:47:12.856Z,10.90
2019-04-03T19:49:41.449Z,10.90
2019-04-03T19:52:09.888Z,10.90
2019-04-03T19:54:38.327Z,10.90
2019-04-03T19:57:06.855Z,10.90
2019-04-03T19:59:35.289Z,10.90
2019-04-03T20:02:03.818Z,10.90
2019-04-03T20:04:32.323Z,10.90
2019-04-03T20:07:00.787Z,10.90
2019-04-03T20:09:31.904Z,10.80
2019-04-03T20:11:59.421Z,10.80
2019-04-03T20:14:27.846Z,10.80
2019-04-03T20:16:58.462Z,10.70
2019-04-03T20:19:26.810Z,10.70
2019-04-03T20:21:55.874Z,10.70
2019-04-03T20:24:25.263Z,10.70
2019-04-03T20:26:53.941Z,10.80
2019-04-03T20:29:22.750Z,10.80
2019-04-03T20:31:51.630Z,10.70
2019-04-03T20:34:20.055Z,10.70
2019-04-03T20:36:51.047Z,10.60
2019-04-03T20:39:18.670Z,10.60
2019-04-03T20:41:47.123Z,10.60
2019-04-03T20:44:17.378Z,10.60
2019-04-03T20:46:45.834Z,10.60
2019-04-03T20:49:14.338Z,10.60
2019-04-03T20:51:42.785Z,10.60
2019-04-03T20:54:11.846Z,10.60
2019-04-03T20:56:40.553Z,10.60
2019-04-03T20:59:11.221Z,10.70
2019-04-03T21:01:39.175Z,10.70
2019-04-03T21:04:07.618Z,10.70
2019-04-03T21:06:37.383Z,10.70
2019-04-03T21:09:08.109Z,10.70
2019-04-03T21:11:36.578Z,10.80
2019-04-03T21:14:05.793Z,10.80
2019-04-03T21:16:34.510Z,10.80
2019-04-03T21:19:03.026Z,10.80
2019-04-03T21:21:31.563Z,10.80
2019-04-03T21:23:59.994Z,10.80
2019-04-03T21:26:28.414Z,10.70
2019-04-03T21:28:56.874Z,10.70
2019-04-03T21:31:25.969Z,10.60
2019-04-03T21:33:55.497Z,10.60
2019-04-03T21:36:23.932Z,10.60
2019-04-03T21:38:52.458Z,10.60
2019-04-03T21:41:21.362Z,10.60
2019-04-03T21:43:49.913Z,10.70
2019-04-03T21:46:18.350Z,10.60
2019-04-03T21:48:46.790Z,10.60
2019-04-03T21:51:15.224Z,10.60
2019-04-03T21:53:43.670Z,10.70
2019-04-03T21:56:12.146Z,10.70
2019-04-03T21:58:40.689Z,10.70
2019-04-03T22:01:18.242Z,10.70
2019-04-03T22:03:46.767Z,10.70
2019-04-03T22:06:15.330Z,10.80
2019-04-03T22:08:46.866Z,10.80
2019-04-03T22:11:15.307Z,10.80
2019-04-03T22:13:43.854Z,10.70
2019-04-03T22:16:12.397Z,10.70
2019-04-03T22:18:40.915Z,10.70
2019-04-03T22:21:09.505Z,10.70
2019-04-03T22:23:38.044Z,10.70
2019-04-03T22:26:09.573Z,10.60
2019-04-03T22:28:36.800Z,10.70
2019-04-03T22:31:05.555Z,10.60
2019-04-03T22:33:34.015Z,10.60
2019-04-03T22:36:03.301Z,10.60
2019-04-03T22:38:32.495Z,10.50
2019-04-03T22:41:00.956Z,10.60
2019-04-03T22:43:29.479Z,10.50
2019-04-03T22:45:58.025Z,10.50
2019-04-03T22:48:27.489Z,10.60
2019-04-03T22:50:56.182Z,10.50
2019-04-03T22:53:24.702Z,10.40
2019-04-03T22:55:53.219Z,10.40
2019-04-03T22:58:21.760Z,10.30
2019-04-03T23:00:50.266Z,10.30
2019-04-03T23:03:18.694Z,10.30
2019-04-03T23:05:48.035Z,10.30
2019-04-03T23:08:17.076Z,10.30
2019-04-03T23:10:45.598Z,10.20
2019-04-03T23:13:14.095Z,10.20
2019-04-03T23:15:42.555Z,10.20
2019-04-03T23:18:11.086Z,10.10
2019-04-03T23:20:39.630Z,10.10
2019-04-03T23:23:08.070Z,10.10
2019-04-03T23:25:36.519Z,10.10
2019-04-03T23:28:04.945Z,10.10
2019-04-03T23:30:33.777Z,10.20
2019-04-03T23:33:02.339Z,10.10
2019-04-03T23:35:30.801Z,10.20
2019-04-03T23:37:59.295Z,10.10
2019-04-03T23:40:27.757Z,10.10
2019-04-03T23:42:56.186Z,10.00
2019-04-03T23:45:26.763Z,9.90
2019-04-03T23:47:55.190Z,9.90
2019-04-03T23:50:23.686Z,9.90
2019-04-03T23:52:52.186Z,9.80
2019-04-03T23:55:20.762Z,9.90
2019-04-03T23:57:49.370Z,9.90
